sensor_id;sensor_type;location;lat;lon;timestamp;P1;durP1;ratioP1;P2;durP2;ratioP2
52982;SDS011;48698;45.736;13.926;2023-06-19T00:01:44;6.15;;;5.22;;
52982;SDS011;48698;45.736;13.926;2023-06-19T00:06:48;7.90;;;5.75;;
52982;SDS011;48698;45.736;13.926;2023-06-19T00:12:09;5.93;;;5.22;;
52982;SDS011;48698;45.736;13.926;2023-06-19T00:17:13;5.93;;;5.07;;
52982;SDS011;48698;45.736;13.926;2023-06-19T00:22:19;6.70;;;5.00;;
52982;SDS011;48698;45.736;13.926;2023-06-19T00:27:40;7.72;;;5.47;;
52982;SDS011;48698;45.736;13.926;2023-06-19T00:32:43;6.45;;;5.63;;
52982;SDS011;48698;45.736;13.926;2023-06-19T00:38:07;7.80;;;5.80;;
52982;SDS011;48698;45.736;13.926;2023-06-19T00:43:29;7.60;;;5.55;;
52982;SDS011;48698;45.736;13.926;2023-06-19T00:48:50;8.93;;;6.03;;
52982;SDS011;48698;45.736;13.926;2023-06-19T00:54:11;8.63;;;5.57;;
52982;SDS011;48698;45.736;13.926;2023-06-19T00:59:33;6.72;;;6.13;;
52982;SDS011;48698;45.736;13.926;2023-06-19T01:04:54;7.57;;;6.75;;
52982;SDS011;48698;45.736;13.926;2023-06-19T01:10:17;7.45;;;6.53;;
52982;SDS011;48698;45.736;13.926;2023-06-19T01:15:42;6.53;;;5.93;;
52982;SDS011;48698;45.736;13.926;2023-06-19T01:21:14;9.15;;;6.25;;
52982;SDS011;48698;45.736;13.926;2023-06-19T01:26:37;8.85;;;6.70;;
52982;SDS011;48698;45.736;13.926;2023-06-19T01:32:07;6.90;;;6.20;;
52982;SDS011;48698;45.736;13.926;2023-06-19T01:37:34;11.73;;;6.97;;
52982;SDS011;48698;45.736;13.926;2023-06-19T01:42:57;7.57;;;6.63;;
52982;SDS011;48698;45.736;13.926;2023-06-19T01:48:21;9.70;;;7.22;;
52982;SDS011;48698;45.736;13.926;2023-06-19T01:53:42;8.77;;;6.90;;
52982;SDS011;48698;45.736;13.926;2023-06-19T01:59:03;10.98;;;8.10;;
52982;SDS011;48698;45.736;13.926;2023-06-19T02:04:24;9.52;;;7.05;;
52982;SDS011;48698;45.736;13.926;2023-06-19T02:09:45;8.80;;;7.78;;
52982;SDS011;48698;45.736;13.926;2023-06-19T02:15:06;8.75;;;6.90;;
52982;SDS011;48698;45.736;13.926;2023-06-19T02:20:28;9.20;;;7.47;;
52982;SDS011;48698;45.736;13.926;2023-06-19T02:25:49;8.35;;;7.05;;
52982;SDS011;48698;45.736;13.926;2023-06-19T02:31:10;8.57;;;7.68;;
52982;SDS011;48698;45.736;13.926;2023-06-19T02:36:31;10.10;;;8.88;;
52982;SDS011;48698;45.736;13.926;2023-06-19T02:41:52;9.60;;;8.27;;
52982;SDS011;48698;45.736;13.926;2023-06-19T02:47:13;8.95;;;8.05;;
52982;SDS011;48698;45.736;13.926;2023-06-19T02:52:34;8.00;;;7.20;;
52982;SDS011;48698;45.736;13.926;2023-06-19T02:57:55;9.73;;;8.57;;
52982;SDS011;48698;45.736;13.926;2023-06-19T03:03:16;16.00;;;14.32;;
52982;SDS011;48698;45.736;13.926;2023-06-19T03:08:37;18.52;;;16.73;;
52982;SDS011;48698;45.736;13.926;2023-06-19T03:13:58;11.60;;;9.95;;
52982;SDS011;48698;45.736;13.926;2023-06-19T03:19:20;13.75;;;9.88;;
52982;SDS011;48698;45.736;13.926;2023-06-19T03:24:41;11.10;;;8.82;;
52982;SDS011;48698;45.736;13.926;2023-06-19T03:30:03;19.80;;;12.27;;
52982;SDS011;48698;45.736;13.926;2023-06-19T03:35:28;9.32;;;8.38;;
52982;SDS011;48698;45.736;13.926;2023-06-19T03:40:50;75.00;;;30.75;;
52982;SDS011;48698;45.736;13.926;2023-06-19T03:46:11;15.60;;;11.77;;
52982;SDS011;48698;45.736;13.926;2023-06-19T03:51:32;9.23;;;8.07;;
52982;SDS011;48698;45.736;13.926;2023-06-19T03:56:53;9.48;;;8.57;;
52982;SDS011;48698;45.736;13.926;2023-06-19T04:02:14;13.40;;;9.15;;
52982;SDS011;48698;45.736;13.926;2023-06-19T04:07:35;9.48;;;8.13;;
52982;SDS011;48698;45.736;13.926;2023-06-19T04:12:57;9.18;;;8.27;;
52982;SDS011;48698;45.736;13.926;2023-06-19T04:18:18;9.98;;;8.43;;
52982;SDS011;48698;45.736;13.926;2023-06-19T04:23:39;15.02;;;7.95;;
52982;SDS011;48698;45.736;13.926;2023-06-19T04:29:00;12.77;;;7.50;;
52982;SDS011;48698;45.736;13.926;2023-06-19T04:34:22;9.88;;;7.70;;
52982;SDS011;48698;45.736;13.926;2023-06-19T04:39:43;10.13;;;8.55;;
52982;SDS011;48698;45.736;13.926;2023-06-19T04:45:04;10.18;;;7.38;;
52982;SDS011;48698;45.736;13.926;2023-06-19T04:50:28;11.18;;;8.00;;
52982;SDS011;48698;45.736;13.926;2023-06-19T04:55:49;8.68;;;7.30;;
52982;SDS011;48698;45.736;13.926;2023-06-19T05:01:10;15.15;;;7.43;;
52982;SDS011;48698;45.736;13.926;2023-06-19T05:06:34;7.80;;;6.80;;
52982;SDS011;48698;45.736;13.926;2023-06-19T05:11:56;7.75;;;6.78;;
52982;SDS011;48698;45.736;13.926;2023-06-19T05:17:18;7.93;;;6.40;;
52982;SDS011;48698;45.736;13.926;2023-06-19T05:22:39;7.22;;;6.15;;
52982;SDS011;48698;45.736;13.926;2023-06-19T05:28:00;7.10;;;5.85;;
52982;SDS011;48698;45.736;13.926;2023-06-19T05:33:24;8.27;;;6.37;;
52982;SDS011;48698;45.736;13.926;2023-06-19T05:38:45;7.10;;;6.20;;
52982;SDS011;48698;45.736;13.926;2023-06-19T05:44:06;8.18;;;6.03;;
52982;SDS011;48698;45.736;13.926;2023-06-19T05:49:27;9.48;;;5.75;;
52982;SDS011;48698;45.736;13.926;2023-06-19T05:54:49;6.45;;;5.55;;
52982;SDS011;48698;45.736;13.926;2023-06-19T06:00:11;6.35;;;5.22;;
52982;SDS011;48698;45.736;13.926;2023-06-19T06:05:35;6.35;;;5.13;;
52982;SDS011;48698;45.736;13.926;2023-06-19T06:10:57;11.45;;;5.90;;
52982;SDS011;48698;45.736;13.926;2023-06-19T06:16:18;6.53;;;5.63;;
52982;SDS011;48698;45.736;13.926;2023-06-19T06:21:39;16.92;;;5.80;;
52982;SDS011;48698;45.736;13.926;2023-06-19T06:27:01;7.22;;;5.47;;
52982;SDS011;48698;45.736;13.926;2023-06-19T06:32:23;7.43;;;5.25;;
52982;SDS011;48698;45.736;13.926;2023-06-19T06:37:44;9.32;;;5.95;;
52982;SDS011;48698;45.736;13.926;2023-06-19T06:43:06;8.50;;;5.45;;
52982;SDS011;48698;45.736;13.926;2023-06-19T06:48:27;7.32;;;5.43;;
52982;SDS011;48698;45.736;13.926;2023-06-19T06:53:49;7.07;;;5.15;;
52982;SDS011;48698;45.736;13.926;2023-06-19T06:59:11;5.53;;;4.70;;
52982;SDS011;48698;45.736;13.926;2023-06-19T07:04:32;8.45;;;4.68;;
52982;SDS011;48698;45.736;13.926;2023-06-19T07:09:53;5.35;;;4.30;;
52982;SDS011;48698;45.736;13.926;2023-06-19T07:15:14;6.63;;;4.68;;
52982;SDS011;48698;45.736;13.926;2023-06-19T07:20:36;4.85;;;3.80;;
52982;SDS011;48698;45.736;13.926;2023-06-19T07:25:58;7.50;;;4.53;;
52982;SDS011;48698;45.736;13.926;2023-06-19T07:31:19;7.35;;;4.47;;
52982;SDS011;48698;45.736;13.926;2023-06-19T07:36:40;6.88;;;4.32;;
52982;SDS011;48698;45.736;13.926;2023-06-19T07:42:02;6.25;;;4.10;;
52982;SDS011;48698;45.736;13.926;2023-06-19T07:47:23;6.28;;;4.32;;
52982;SDS011;48698;45.736;13.926;2023-06-19T07:52:29;8.20;;;4.40;;
52982;SDS011;48698;45.736;13.926;2023-06-19T08:02:38;5.50;;;4.25;;
52982;SDS011;48698;45.736;13.926;2023-06-19T08:07:42;6.00;;;4.60;;
52982;SDS011;48698;45.736;13.926;2023-06-19T08:17:49;6.22;;;4.40;;
52982;SDS011;48698;45.736;13.926;2023-06-19T08:22:56;14.13;;;4.65;;
52982;SDS011;48698;45.736;13.926;2023-06-19T08:28:00;5.80;;;4.30;;
52982;SDS011;48698;45.736;13.926;2023-06-19T08:33:13;4.80;;;4.00;;
52982;SDS011;48698;45.736;13.926;2023-06-19T08:38:17;12.38;;;5.18;;
52982;SDS011;48698;45.736;13.926;2023-06-19T08:43:21;6.47;;;4.53;;
52982;SDS011;48698;45.736;13.926;2023-06-19T08:48:24;5.05;;;4.20;;
52982;SDS011;48698;45.736;13.926;2023-06-19T08:53:28;6.20;;;4.50;;
52982;SDS011;48698;45.736;13.926;2023-06-19T08:58:32;5.65;;;4.72;;
52982;SDS011;48698;45.736;13.926;2023-06-19T11:24:55;11.60;;;5.00;;
52982;SDS011;48698;45.736;13.926;2023-06-19T11:30:06;6.70;;;4.40;;
52982;SDS011;48698;45.736;13.926;2023-06-19T11:35:11;6.85;;;4.88;;
52982;SDS011;48698;45.736;13.926;2023-06-19T11:40:20;6.65;;;4.97;;
52982;SDS011;48698;45.736;13.926;2023-06-19T11:45:27;7.57;;;5.07;;
52982;SDS011;48698;45.736;13.926;2023-06-19T11:50:30;7.18;;;5.22;;
52982;SDS011;48698;45.736;13.926;2023-06-19T11:55:44;6.03;;;5.35;;
52982;SDS011;48698;45.736;13.926;2023-06-19T12:00:48;6.55;;;5.35;;
52982;SDS011;48698;45.736;13.926;2023-06-19T12:05:51;6.68;;;4.65;;
52982;SDS011;48698;45.736;13.926;2023-06-19T12:10:54;6.82;;;4.85;;
52982;SDS011;48698;45.736;13.926;2023-06-19T12:28:00;8.07;;;4.70;;
52982;SDS011;48698;45.736;13.926;2023-06-19T12:33:02;4.80;;;4.30;;
52982;SDS011;48698;45.736;13.926;2023-06-19T12:38:06;10.82;;;4.70;;
52982;SDS011;48698;45.736;13.926;2023-06-19T12:43:10;6.38;;;4.68;;
52982;SDS011;48698;45.736;13.926;2023-06-19T12:48:12;5.70;;;4.53;;
52982;SDS011;48698;45.736;13.926;2023-06-19T12:53:19;8.18;;;4.78;;
52982;SDS011;48698;45.736;13.926;2023-06-19T12:59:12;19.40;;;6.90;;
52982;SDS011;48698;45.736;13.926;2023-06-19T13:04:14;14.43;;;5.57;;
52982;SDS011;48698;45.736;13.926;2023-06-19T13:14:20;6.50;;;4.75;;
52982;SDS011;48698;45.736;13.926;2023-06-19T13:19:23;5.90;;;4.28;;
52982;SDS011;48698;45.736;13.926;2023-06-19T13:24:27;11.13;;;5.20;;
52982;SDS011;48698;45.736;13.926;2023-06-19T13:36:31;5.70;;;4.20;;
52982;SDS011;48698;45.736;13.926;2023-06-19T13:41:33;9.35;;;4.75;;
52982;SDS011;48698;45.736;13.926;2023-06-19T13:46:37;6.38;;;4.40;;
52982;SDS011;48698;45.736;13.926;2023-06-19T13:51:41;9.82;;;5.72;;
52982;SDS011;48698;45.736;13.926;2023-06-19T13:56:47;7.70;;;5.63;;
52982;SDS011;48698;45.736;13.926;2023-06-19T14:01:50;8.43;;;5.20;;
52982;SDS011;48698;45.736;13.926;2023-06-19T14:06:53;9.43;;;5.57;;
52982;SDS011;48698;45.736;13.926;2023-06-19T14:11:58;6.38;;;5.10;;
52982;SDS011;48698;45.736;13.926;2023-06-19T14:17:02;7.50;;;6.25;;
52982;SDS011;48698;45.736;13.926;2023-06-19T14:22:05;8.25;;;6.20;;
52982;SDS011;48698;45.736;13.926;2023-06-19T14:27:08;6.57;;;5.85;;
52982;SDS011;48698;45.736;13.926;2023-06-19T14:39:04;7.53;;;6.72;;
52982;SDS011;48698;45.736;13.926;2023-06-19T14:44:08;8.13;;;5.70;;
52982;SDS011;48698;45.736;13.926;2023-06-19T14:49:12;13.05;;;7.30;;
52982;SDS011;48698;45.736;13.926;2023-06-19T14:54:16;9.80;;;6.13;;
52982;SDS011;48698;45.736;13.926;2023-06-19T14:59:26;7.70;;;6.68;;
52982;SDS011;48698;45.736;13.926;2023-06-19T15:04:30;8.43;;;6.15;;
52982;SDS011;48698;45.736;13.926;2023-06-19T15:09:34;7.00;;;6.30;;
52982;SDS011;48698;45.736;13.926;2023-06-19T15:14:37;6.50;;;5.82;;
52982;SDS011;48698;45.736;13.926;2023-06-19T15:19:40;8.88;;;6.38;;
52982;SDS011;48698;45.736;13.926;2023-06-19T15:24:43;8.40;;;5.90;;
52982;SDS011;48698;45.736;13.926;2023-06-19T15:34:49;6.53;;;5.47;;
52982;SDS011;48698;45.736;13.926;2023-06-19T15:39:53;8.77;;;5.78;;
52982;SDS011;48698;45.736;13.926;2023-06-19T15:45:08;8.00;;;5.90;;
52982;SDS011;48698;45.736;13.926;2023-06-19T15:50:14;8.73;;;5.45;;
52982;SDS011;48698;45.736;13.926;2023-06-19T16:00:20;6.07;;;5.47;;
52982;SDS011;48698;45.736;13.926;2023-06-19T16:05:25;7.88;;;5.95;;
52982;SDS011;48698;45.736;13.926;2023-06-19T16:10:38;9.68;;;5.63;;
52982;SDS011;48698;45.736;13.926;2023-06-19T16:15:42;11.90;;;5.50;;
52982;SDS011;48698;45.736;13.926;2023-06-19T16:20:46;8.05;;;5.32;;
52982;SDS011;48698;45.736;13.926;2023-06-19T16:25:48;8.80;;;5.30;;
52982;SDS011;48698;45.736;13.926;2023-06-19T16:30:51;8.02;;;5.72;;
52982;SDS011;48698;45.736;13.926;2023-06-19T16:35:59;11.52;;;5.50;;
52982;SDS011;48698;45.736;13.926;2023-06-19T16:41:02;6.55;;;5.05;;
52982;SDS011;48698;45.736;13.926;2023-06-19T16:51:18;8.48;;;5.50;;
52982;SDS011;48698;45.736;13.926;2023-06-19T16:56:21;8.68;;;5.47;;
52982;SDS011;48698;45.736;13.926;2023-06-19T17:01:24;6.85;;;5.10;;
52982;SDS011;48698;45.736;13.926;2023-06-19T17:06:27;6.53;;;5.32;;
52982;SDS011;48698;45.736;13.926;2023-06-19T17:11:30;7.43;;;5.70;;
52982;SDS011;48698;45.736;13.926;2023-06-19T17:16:33;7.50;;;4.97;;
52982;SDS011;48698;45.736;13.926;2023-06-19T17:21:35;8.60;;;4.78;;
52982;SDS011;48698;45.736;13.926;2023-06-19T17:26:38;6.30;;;4.38;;
52982;SDS011;48698;45.736;13.926;2023-06-19T17:31:42;6.22;;;5.20;;
52982;SDS011;48698;45.736;13.926;2023-06-19T17:36:54;5.95;;;4.47;;
52982;SDS011;48698;45.736;13.926;2023-06-19T17:41:56;7.50;;;4.63;;
52982;SDS011;48698;45.736;13.926;2023-06-19T17:46:59;7.15;;;4.95;;
52982;SDS011;48698;45.736;13.926;2023-06-19T17:52:06;6.00;;;5.00;;
52982;SDS011;48698;45.736;13.926;2023-06-19T17:57:10;7.00;;;5.15;;
52982;SDS011;48698;45.736;13.926;2023-06-19T18:16:35;11.23;;;7.10;;
52982;SDS011;48698;45.736;13.926;2023-06-19T18:21:40;5.72;;;5.13;;
52982;SDS011;48698;45.736;13.926;2023-06-19T18:26:43;6.50;;;5.25;;
52982;SDS011;48698;45.736;13.926;2023-06-19T18:31:47;5.78;;;5.13;;
52982;SDS011;48698;45.736;13.926;2023-06-19T18:37:00;8.77;;;6.15;;
52982;SDS011;48698;45.736;13.926;2023-06-19T18:42:14;6.63;;;6.03;;
52982;SDS011;48698;45.736;13.926;2023-06-19T18:47:18;10.18;;;6.70;;
52982;SDS011;48698;45.736;13.926;2023-06-19T18:52:21;106.93;;;13.32;;
52982;SDS011;48698;45.736;13.926;2023-06-19T18:57:23;15.50;;;7.80;;
52982;SDS011;48698;45.736;13.926;2023-06-19T19:02:30;12.25;;;8.13;;
52982;SDS011;48698;45.736;13.926;2023-06-19T19:07:33;19.80;;;9.83;;
52982;SDS011;48698;45.736;13.926;2023-06-19T19:19:35;10.98;;;8.60;;
52982;SDS011;48698;45.736;13.926;2023-06-19T19:24:38;9.13;;;8.20;;
52982;SDS011;48698;45.736;13.926;2023-06-19T19:29:41;10.15;;;9.15;;
52982;SDS011;48698;45.736;13.926;2023-06-19T19:34:44;11.60;;;8.80;;
52982;SDS011;48698;45.736;13.926;2023-06-19T19:39:47;9.65;;;8.65;;
52982;SDS011;48698;45.736;13.926;2023-06-19T19:44:49;13.60;;;10.20;;
52982;SDS011;48698;45.736;13.926;2023-06-19T19:49:52;11.88;;;10.05;;
52982;SDS011;48698;45.736;13.926;2023-06-19T19:54:58;13.20;;;10.02;;
52982;SDS011;48698;45.736;13.926;2023-06-19T20:00:01;11.18;;;10.07;;
52982;SDS011;48698;45.736;13.926;2023-06-19T20:05:14;16.23;;;11.07;;
52982;SDS011;48698;45.736;13.926;2023-06-19T20:10:27;14.90;;;11.30;;
52982;SDS011;48698;45.736;13.926;2023-06-19T20:15:50;13.05;;;11.73;;
52982;SDS011;48698;45.736;13.926;2023-06-19T20:20:53;12.68;;;11.40;;
52982;SDS011;48698;45.736;13.926;2023-06-19T20:25:56;12.45;;;11.20;;
52982;SDS011;48698;45.736;13.926;2023-06-19T20:32:06;13.73;;;12.32;;
52982;SDS011;48698;45.736;13.926;2023-06-19T20:37:09;13.20;;;11.90;;
52982;SDS011;48698;45.736;13.926;2023-06-19T20:42:11;14.95;;;13.20;;
52982;SDS011;48698;45.736;13.926;2023-06-19T20:47:14;13.20;;;11.80;;
52982;SDS011;48698;45.736;13.926;2023-06-19T20:52:17;13.23;;;11.85;;
52982;SDS011;48698;45.736;13.926;2023-06-19T20:57:20;12.55;;;11.23;;
52982;SDS011;48698;45.736;13.926;2023-06-19T21:02:23;13.48;;;12.27;;
52982;SDS011;48698;45.736;13.926;2023-06-19T21:07:26;14.67;;;13.27;;
52982;SDS011;48698;45.736;13.926;2023-06-19T21:12:29;14.23;;;12.93;;
52982;SDS011;48698;45.736;13.926;2023-06-19T21:17:34;13.63;;;12.43;;
52982;SDS011;48698;45.736;13.926;2023-06-19T21:22:47;14.45;;;13.05;;
52982;SDS011;48698;45.736;13.926;2023-06-19T21:27:49;16.50;;;13.20;;
52982;SDS011;48698;45.736;13.926;2023-06-19T21:32:52;13.27;;;11.98;;
52982;SDS011;48698;45.736;13.926;2023-06-19T21:37:55;15.57;;;14.10;;
52982;SDS011;48698;45.736;13.926;2023-06-19T21:42:58;13.10;;;11.90;;
52982;SDS011;48698;45.736;13.926;2023-06-19T21:48:01;13.77;;;12.57;;
52982;SDS011;48698;45.736;13.926;2023-06-19T21:53:04;14.82;;;13.52;;
52982;SDS011;48698;45.736;13.926;2023-06-19T21:58:09;16.38;;;14.68;;
52982;SDS011;48698;45.736;13.926;2023-06-19T22:03:12;14.55;;;13.25;;
52982;SDS011;48698;45.736;13.926;2023-06-19T22:08:15;15.25;;;13.15;;
52982;SDS011;48698;45.736;13.926;2023-06-19T22:13:25;14.27;;;12.98;;
52982;SDS011;48698;45.736;13.926;2023-06-19T22:18:31;15.25;;;13.55;;
52982;SDS011;48698;45.736;13.926;2023-06-19T22:23:34;15.10;;;13.45;;
52982;SDS011;48698;45.736;13.926;2023-06-19T22:28:49;16.33;;;14.38;;
52982;SDS011;48698;45.736;13.926;2023-06-19T22:33:52;16.25;;;14.63;;
52982;SDS011;48698;45.736;13.926;2023-06-19T22:38:56;17.15;;;15.65;;
52982;SDS011;48698;45.736;13.926;2023-06-19T22:43:59;17.48;;;15.98;;
52982;SDS011;48698;45.736;13.926;2023-06-19T22:49:04;18.17;;;16.50;;
52982;SDS011;48698;45.736;13.926;2023-06-19T22:54:07;17.77;;;16.17;;
52982;SDS011;48698;45.736;13.926;2023-06-19T22:59:10;16.70;;;15.20;;
52982;SDS011;48698;45.736;13.926;2023-06-19T23:04:13;15.80;;;14.40;;
52982;SDS011;48698;45.736;13.926;2023-06-19T23:09:18;16.25;;;14.77;;
52982;SDS011;48698;45.736;13.926;2023-06-19T23:14:21;18.30;;;16.30;;
52982;SDS011;48698;45.736;13.926;2023-06-19T23:19:24;17.35;;;15.75;;
52982;SDS011;48698;45.736;13.926;2023-06-19T23:24:27;17.25;;;15.55;;
52982;SDS011;48698;45.736;13.926;2023-06-19T23:29:31;17.13;;;15.63;;
52982;SDS011;48698;45.736;13.926;2023-06-19T23:34:34;16.48;;;14.93;;
52982;SDS011;48698;45.736;13.926;2023-06-19T23:39:37;17.30;;;15.55;;
52982;SDS011;48698;45.736;13.926;2023-06-19T23:44:39;16.70;;;15.30;;
52982;SDS011;48698;45.736;13.926;2023-06-19T23:49:42;17.35;;;15.60;;
52982;SDS011;48698;45.736;13.926;2023-06-19T23:54:45;16.15;;;14.63;;
52982;SDS011;48698;45.736;13.926;2023-06-19T23:59:48;16.27;;;14.88;;
